createdAt,value
2022-11-20T00:03:00.259Z,68.96
2022-11-20T00:07:52.086Z,68.01
2022-11-20T00:12:43.621Z,68.71
2022-11-20T00:17:35.312Z,68.20
2022-11-20T00:22:26.839Z,68.32
2022-11-20T00:27:18.406Z,68.32
2022-11-20T00:32:10.017Z,67.22
2022-11-20T00:37:01.592Z,66.43
2022-11-20T00:41:53.112Z,66.75
2022-11-20T00:46:44.683Z,67.08
2022-11-20T00:51:36.322Z,66.72
2022-11-20T00:56:28.353Z,66.17
2022-11-20T01:01:26.392Z,66.56
2022-11-20T01:06:24.543Z,66.75
2022-11-20T01:11:25.334Z,66.77
2022-11-20T01:16:19.832Z,66.79
2022-11-20T01:21:23.921Z,66.45
2022-11-20T01:26:19.346Z,67.16
2022-11-20T01:31:17.310Z,66.11
2022-11-20T01:36:09.832Z,66.04
2022-11-20T01:41:01.586Z,66.73
2022-11-20T01:46:01.090Z,65.91
2022-11-20T01:50:55.592Z,66.63
2022-11-20T01:55:52.379Z,67.15
2022-11-20T02:00:44.015Z,67.29
2022-11-20T02:06:06.855Z,67.52
2022-11-20T02:10:58.533Z,66.68
2022-11-20T02:15:50.945Z,66.21
2022-11-20T02:20:47.776Z,67.11
2022-11-20T02:25:42.118Z,66.74
2022-11-20T02:30:33.664Z,67.33
2022-11-20T02:35:26.094Z,67.56
2022-11-20T02:40:17.854Z,67.78
2022-11-20T02:45:09.905Z,67.26
2022-11-20T02:50:01.640Z,67.09
2022-11-20T02:54:54.205Z,66.95
2022-11-20T02:59:45.733Z,67.10
2022-11-20T03:04:37.402Z,67.16
2022-11-20T03:09:28.966Z,67.47
2022-11-20T03:14:20.534Z,67.72
2022-11-20T03:19:13.064Z,67.49
2022-11-20T03:24:05.393Z,67.75
2022-11-20T03:28:59.908Z,67.60
2022-11-20T03:33:51.776Z,68.09
2022-11-20T03:38:43.487Z,68.08
2022-11-20T03:43:35.892Z,68.10
2022-11-20T03:48:28.383Z,68.26
2022-11-20T03:53:20.800Z,67.70
2022-11-20T03:58:12.493Z,68.75
2022-11-20T04:03:04.858Z,68.48
2022-11-20T04:07:56.491Z,68.59
2022-11-20T04:12:48.111Z,69.44
2022-11-20T04:17:39.689Z,69.68
2022-11-20T04:22:31.196Z,71.07
2022-11-20T04:27:22.857Z,71.78
2022-11-20T04:32:14.364Z,72.05
2022-11-20T04:37:06.122Z,72.08
2022-11-20T04:42:16.332Z,71.30
2022-11-20T04:47:07.955Z,71.50
2022-11-20T04:51:59.555Z,71.58
2022-11-20T04:56:51.267Z,71.11
2022-11-20T05:01:43.993Z,70.92
2022-11-20T05:06:35.615Z,70.66
2022-11-20T05:11:30.833Z,70.01
2022-11-20T05:16:24.949Z,68.80
2022-11-20T05:21:17.861Z,68.73
2022-11-20T05:26:15.039Z,69.41
2022-11-20T05:31:09.931Z,68.80
2022-11-20T05:36:02.275Z,69.36
2022-11-20T05:40:55.417Z,69.28
2022-11-20T05:45:56.136Z,68.46
2022-11-20T05:50:48.869Z,68.80
2022-11-20T05:55:40.522Z,68.79
2022-11-20T06:00:32.044Z,69.40
2022-11-20T06:05:23.683Z,69.33
2022-11-20T06:10:15.298Z,69.58
2022-11-20T06:15:07.772Z,69.26
2022-11-20T06:19:59.389Z,68.83
2022-11-20T06:24:51.693Z,69.71
2022-11-20T06:29:43.308Z,68.67
2022-11-20T06:34:35.847Z,69.28
2022-11-20T06:39:27.420Z,69.32
2022-11-20T06:44:18.957Z,69.29
2022-11-20T06:49:10.526Z,69.59
2022-11-20T06:54:03.017Z,69.11
2022-11-20T06:58:54.569Z,69.42
2022-11-20T07:03:50.028Z,69.26
2022-11-20T07:08:44.486Z,69.28
2022-11-20T07:13:37.140Z,68.78
2022-11-20T07:18:29.037Z,69.35
2022-11-20T07:23:20.979Z,67.51
2022-11-20T07:28:12.570Z,66.84
2022-11-20T07:33:04.113Z,67.93
2022-11-20T07:37:55.654Z,67.36
2022-11-20T07:42:54.881Z,66.52
2022-11-20T07:47:46.704Z,65.87
2022-11-20T07:52:39.236Z,65.92
2022-11-20T07:57:31.873Z,66.09
2022-11-20T08:02:24.398Z,65.61
2022-11-20T08:07:16.050Z,65.17
2022-11-20T08:12:27.381Z,66.82
2022-11-20T08:17:19.004Z,68.64
2022-11-20T08:22:10.757Z,68.84
2022-11-20T08:27:02.343Z,67.96
2022-11-20T08:31:55.757Z,67.30
2022-11-20T08:36:47.390Z,66.60
2022-11-20T08:41:39.006Z,66.10
2022-11-20T08:46:44.853Z,65.41
2022-11-20T08:51:38.028Z,66.05
2022-11-20T08:56:29.594Z,65.51
2022-11-20T09:01:22.706Z,65.70
2022-11-20T09:06:14.649Z,65.65
2022-11-20T09:11:07.012Z,64.35
2022-11-20T09:16:02.425Z,62.25
2022-11-20T09:20:58.628Z,63.48
2022-11-20T09:25:50.419Z,63.18
2022-11-20T09:30:42.010Z,62.97
2022-11-20T09:35:34.247Z,62.71
2022-11-20T09:40:30.405Z,61.79
2022-11-20T09:45:50.653Z,61.11
2022-11-20T09:51:19.945Z,61.13
2022-11-20T09:56:16.980Z,62.30
2022-11-20T10:01:22.048Z,62.54
2022-11-20T10:06:18.027Z,62.69
2022-11-20T10:11:46.016Z,62.89
2022-11-20T10:16:56.235Z,63.31
2022-11-20T10:21:53.717Z,63.82
2022-11-20T10:27:04.465Z,64.76
2022-11-20T10:32:04.610Z,65.46
2022-11-20T10:37:05.201Z,65.33
2022-11-20T10:41:58.777Z,65.11
2022-11-20T10:46:53.805Z,64.87
2022-11-20T10:52:27.846Z,66.38
2022-11-20T10:57:47.631Z,64.98
2022-11-20T11:02:50.142Z,66.20
2022-11-20T11:07:43.437Z,66.91
2022-11-20T11:12:36.908Z,67.27
2022-11-20T11:17:34.712Z,67.37
2022-11-20T11:22:34.390Z,66.28
2022-11-20T11:27:29.402Z,65.18
2022-11-20T11:32:27.763Z,63.89
2022-11-20T11:37:24.959Z,64.04
2022-11-20T11:42:20.349Z,64.78
2022-11-20T11:47:26.878Z,65.78
2022-11-20T11:52:22.057Z,66.20
2022-11-20T11:57:45.369Z,67.11
2022-11-20T12:02:46.037Z,67.20
2022-11-20T12:07:47.691Z,66.49
2022-11-20T12:12:45.934Z,67.09
2022-11-20T12:17:37.601Z,66.65
2022-11-20T12:22:44.616Z,67.56
2022-11-20T12:28:07.421Z,67.76
2022-11-20T12:33:30.233Z,67.92
2022-11-20T12:38:30.821Z,67.08
2022-11-20T12:43:44.004Z,66.24
2022-11-20T12:49:09.743Z,66.84
2022-11-20T12:54:25.533Z,66.08
2022-11-20T12:59:40.656Z,64.63
2022-11-20T13:04:35.165Z,65.50
2022-11-20T13:09:28.450Z,65.80
2022-11-20T13:14:43.404Z,65.09
2022-11-20T13:19:35.413Z,65.82
2022-11-20T13:24:32.063Z,65.16
2022-11-20T13:29:23.662Z,64.96
2022-11-20T13:34:26.843Z,65.47
2022-11-20T13:39:45.023Z,65.48
2022-11-20T13:44:43.824Z,67.08
2022-11-20T13:49:44.860Z,67.07
2022-11-20T13:54:39.603Z,67.41
2022-11-20T13:59:34.297Z,67.60
2022-11-20T14:04:37.194Z,67.42
2022-11-20T14:09:31.571Z,67.75
2022-11-20T14:14:31.424Z,67.53
2022-11-20T14:19:28.668Z,68.33
2022-11-20T14:24:25.854Z,68.62
2022-11-20T14:29:25.550Z,68.89
2022-11-20T14:34:21.451Z,68.97
2022-11-20T14:39:21.105Z,68.49
2022-11-20T14:44:12.709Z,69.90
2022-11-20T14:49:05.732Z,69.72
2022-11-20T14:53:57.349Z,69.49
2022-11-20T14:58:56.958Z,70.46
2022-11-20T15:04:01.573Z,70.19
2022-11-20T15:08:53.723Z,71.83
2022-11-20T15:13:45.369Z,73.67
2022-11-20T15:18:44.858Z,75.38
2022-11-20T15:23:36.593Z,76.57
2022-11-20T15:28:40.744Z,78.51
2022-11-20T15:33:33.536Z,78.74
2022-11-20T15:38:25.138Z,80.15
2022-11-20T15:43:16.736Z,80.65
2022-11-20T15:48:15.729Z,81.14
2022-11-20T15:53:09.154Z,81.96
2022-11-20T15:58:00.804Z,81.62
2022-11-20T16:02:52.791Z,81.94
2022-11-20T16:07:44.986Z,82.39
2022-11-20T16:12:55.664Z,83.00
2022-11-20T16:17:47.295Z,81.52
2022-11-20T16:22:38.928Z,81.91
2022-11-20T16:27:30.514Z,82.35
2022-11-20T16:32:22.067Z,82.57
2022-11-20T16:37:13.663Z,83.33
2022-11-20T16:42:05.380Z,83.82
2022-11-20T16:46:56.953Z,84.25
2022-11-20T16:51:48.628Z,84.74
2022-11-20T16:56:40.219Z,85.18
2022-11-20T17:01:32.898Z,85.18
2022-11-20T17:06:27.469Z,84.98
2022-11-20T17:11:19.977Z,85.62
2022-11-20T17:16:17.495Z,85.26
2022-11-20T17:21:09.104Z,85.58
2022-11-20T17:26:06.771Z,86.76
2022-11-20T17:31:02.858Z,87.04
2022-11-20T17:35:54.411Z,87.70
2022-11-20T17:40:46.262Z,88.15
2022-11-20T17:45:37.879Z,87.51
2022-11-20T17:50:29.449Z,88.83
2022-11-20T17:55:21.845Z,87.94
2022-11-20T18:00:17.130Z,88.07
2022-11-20T18:05:08.917Z,89.70
2022-11-20T18:10:00.527Z,89.79
2022-11-20T18:14:52.166Z,89.90
2022-11-20T18:20:01.107Z,89.48
2022-11-20T18:24:58.377Z,88.93
2022-11-20T18:29:51.944Z,88.73
2022-11-20T18:34:44.027Z,88.13
2022-11-20T18:39:37.044Z,87.63
2022-11-20T18:44:50.264Z,87.43
2022-11-20T18:49:50.784Z,87.10
2022-11-20T18:54:42.513Z,86.93
2022-11-20T18:59:34.089Z,87.37
2022-11-20T19:04:26.000Z,87.18
2022-11-20T19:09:17.923Z,87.11
2022-11-20T19:14:09.892Z,87.56
2022-11-20T19:19:03.726Z,86.57
2022-11-20T19:23:58.340Z,86.09
2022-11-20T19:28:50.291Z,85.95
2022-11-20T19:33:42.095Z,85.48
2022-11-20T19:38:33.821Z,84.72
2022-11-20T19:43:25.659Z,83.60
2022-11-20T19:48:17.274Z,83.95
2022-11-20T19:53:11.244Z,83.65
2022-11-20T19:58:03.931Z,82.72
2022-11-20T20:02:55.612Z,82.43
2022-11-20T20:07:47.308Z,82.64
2022-11-20T20:12:38.956Z,81.07
2022-11-20T20:17:30.564Z,81.23
2022-11-20T20:22:22.125Z,79.50
2022-11-20T20:27:13.706Z,79.00
2022-11-20T20:32:05.919Z,79.38
2022-11-20T20:36:57.807Z,78.71
2022-11-20T20:41:49.848Z,77.98
2022-11-20T20:46:41.946Z,77.89
2022-11-20T20:51:34.096Z,77.60
2022-11-20T20:56:25.986Z,76.40
2022-11-20T21:01:19.588Z,76.26
2022-11-20T21:06:11.953Z,75.63
2022-11-20T21:11:14.841Z,76.33
2022-11-20T21:16:07.350Z,76.84
2022-11-20T21:21:18.265Z,75.68
2022-11-20T21:26:10.169Z,77.47
2022-11-20T21:31:18.378Z,76.72
2022-11-20T21:36:13.301Z,77.25
2022-11-20T21:41:06.914Z,77.61
